Time;durP1;ratioP1;P1;durP2;ratioP2;P2;SDS_P1;SDS_P2;PMS_P1;PMS_P2;Temp;Humidity;BMP_temperature;BMP_pressure;BME280_temperature;BME280_humidity;BME280_pressure;Samples;Min_cycle;Max_cycle;Signal;HPM_P1;HPM_P2
2022/09/27 00:02:21;;;;;;;7.50;5.25;;;;;;;;;;1736221;82;21048;-67
2022/09/27 00:04:47;;;;;;;8.45;5.47;;;;;;;;;;1733613;82;21507;-67
2022/09/27 00:07:16;;;;;;;8.28;5.47;;;;;;;;;;1732947;82;21131;-68
2022/09/27 00:09:42;;;;;;;8.45;5.80;;;;;;;;;;1732295;82;21091;-68
2022/09/27 00:12:09;;;;;;;7.42;4.87;;;;;;;;;;1731965;82;21072;-68
2022/09/27 00:14:36;;;;;;;7.47;5.45;;;;;;;;;;1725874;82;21655;-68
2022/09/27 00:17:04;;;;;;;7.92;5.35;;;;;;;;;;1745295;82;21032;-68
2022/09/27 00:19:31;;;;;;;7.83;5.67;;;;;;;;;;1724019;82;21056;-68
2022/09/27 00:21:57;;;;;;;6.50;5.10;;;;;;;;;;1727826;82;21583;-69
2022/09/27 00:24:25;;;;;;;8.33;5.47;;;;;;;;;;1732467;82;21497;-68
2022/09/27 00:26:51;;;;;;;7.72;5.42;;;;;;;;;;1740241;82;21067;-69
2022/09/27 00:29:18;;;;;;;8.45;5.10;;;;;;;;;;1738427;82;21111;-70
2022/09/27 00:31:45;;;;;;;7.90;5.40;;;;;;;;;;1737165;82;21068;-69
2022/09/27 00:34:19;;;;;;;6.62;4.87;;;;;;;;;;1743658;82;21071;-69
2022/09/27 00:36:45;;;;;;;8.20;4.85;;;;;;;;;;1750576;82;21020;-67
2022/09/27 00:39:12;;;;;;;7.90;5.50;;;;;;;;;;1744096;82;21024;-68
2022/09/27 00:41:38;;;;;;;8.90;5.83;;;;;;;;;;1750733;82;21029;-67
2022/09/27 00:44:06;;;;;;;11.12;5.83;;;;;;;;;;1730922;82;21055;-67
2022/09/27 00:46:38;;;;;;;8.75;6.10;;;;;;;;;;1724856;82;21087;-67
2022/09/27 00:49:12;;;;;;;6.40;5.00;;;;;;;;;;1747932;82;21041;-67
2022/09/27 00:51:39;;;;;;;9.53;6.42;;;;;;;;;;1732478;82;22119;-67
2022/09/27 00:54:06;;;;;;;7.05;4.80;;;;;;;;;;1714218;82;21015;-67
2022/09/27 00:56:33;;;;;;;6.78;5.40;;;;;;;;;;1709926;84;21057;-67
2022/09/27 00:59:04;;;;;;;6.90;5.40;;;;;;;;;;1730934;82;21057;-67
2022/09/27 01:04:25;;;;;;;9.30;5.72;;;;;;;;;;1722082;80;76670;-69
2022/09/27 01:06:49;;;;;;;6.78;5.28;;;;;;;;;;1723451;81;21099;-69
2022/09/27 01:09:15;;;;;;;7.08;5.28;;;;;;;;;;1696478;84;21568;-70
2022/09/27 01:11:49;;;;;;;5.92;4.70;;;;;;;;;;1700446;83;21144;-70
2022/09/27 01:14:34;;;;;;;8.43;5.75;;;;;;;;;;1746040;81;21522;-69
2022/09/27 01:17:20;;;;;;;8.68;6.20;;;;;;;;;;1765760;79;21110;-69
2022/09/27 01:20:05;;;;;;;8.53;5.50;;;;;;;;;;1766299;79;20995;-68
2022/09/27 01:22:34;;;;;;;7.35;5.65;;;;;;;;;;1767513;79;21040;-69
2022/09/27 01:25:07;;;;;;;7.78;5.45;;;;;;;;;;1767689;79;21087;-69
2022/09/27 01:27:51;;;;;;;8.55;5.58;;;;;;;;;;1758235;79;21018;-70
2022/09/27 01:30:21;;;;;;;8.78;5.97;;;;;;;;;;1768509;79;21023;-70
2022/09/27 01:33:08;;;;;;;8.15;6.15;;;;;;;;;;1768076;79;21044;-69
2022/09/27 01:35:52;;;;;;;8.30;5.65;;;;;;;;;;1767780;79;21065;-69
2022/09/27 01:38:18;;;;;;;;;;;;;;;;;;1770607;79;21089;-69
2022/09/27 01:40:46;;;;;;;8.63;5.60;;;;;;;;;;1763360;80;20129;-69
2022/09/27 01:43:39;;;;;;;9.28;6.70;;;;;;;;;;1745356;79;21022;-69
2022/09/27 01:46:13;;;;;;;7.83;5.97;;;;;;;;;;1765645;79;21077;-69
2022/09/27 01:49:01;;;;;;;7.92;5.95;;;;;;;;;;1727818;81;21122;-69
2022/09/27 01:51:29;;;;;;;9.73;6.35;;;;;;;;;;1727237;83;22188;-69
2022/09/27 01:53:56;;;;;;;12.03;7.35;;;;;;;;;;1739562;81;21305;-70
2022/09/27 01:56:32;;;;;;;10.72;7.00;;;;;;;;;;1764190;79;21031;-68
2022/09/27 01:59:08;;;;;;;10.23;6.87;;;;;;;;;;1767084;79;21092;-69
2022/09/27 02:01:35;;;;;;;9.63;6.72;;;;;;;;;;1768709;79;21009;-69
2022/09/27 02:04:01;;;;;;;11.38;7.42;;;;;;;;;;1766797;80;21872;-69
2022/09/27 02:06:46;;;;;;;11.48;7.58;;;;;;;;;;1754987;80;20996;-69
2022/09/27 02:09:27;;;;;;;12.43;7.85;;;;;;;;;;1766401;80;21059;-69
2022/09/27 02:12:03;;;;;;;13.78;8.75;;;;;;;;;;1755178;80;21550;-70
2022/09/27 02:14:32;;;;;;;10.78;7.83;;;;;;;;;;1752255;81;21007;-70
2022/09/27 02:17:08;;;;;;;12.65;8.95;;;;;;;;;;1767171;80;21035;-69
2022/09/27 02:19:55;;;;;;;15.75;8.13;;;;;;;;;;1766997;80;20990;-70
2022/09/27 02:22:37;;;;;;;9.95;7.22;;;;;;;;;;1765510;80;22000;-69
2022/09/27 02:25:05;;;;;;;11.33;8.35;;;;;;;;;;1765234;80;21067;-69
2022/09/27 02:27:36;;;;;;;12.93;8.63;;;;;;;;;;1736207;80;21123;-69
2022/09/27 02:30:09;;;;;;;11.40;8.00;;;;;;;;;;1767225;80;21080;-68
2022/09/27 02:32:35;;;;;;;11.08;7.25;;;;;;;;;;1766824;80;21035;-69
2022/09/27 02:35:07;;;;;;;11.97;8.10;;;;;;;;;;1758219;80;21558;-69
2022/09/27 02:37:34;;;;;;;13.13;8.53;;;;;;;;;;1735478;82;21063;-68
2022/09/27 02:40:03;;;;;;;13.85;8.23;;;;;;;;;;1733270;80;21049;-69
2022/09/27 02:42:29;;;;;;;12.73;8.10;;;;;;;;;;1766545;80;21052;-69
2022/09/27 02:44:56;;;;;;;11.22;7.65;;;;;;;;;;1765861;80;22248;-69
2022/09/27 02:47:36;;;;;;;14.45;9.28;;;;;;;;;;1766713;80;21047;-69
2022/09/27 02:50:15;;;;;;;14.53;9.13;;;;;;;;;;1765870;80;21047;-70
2022/09/27 02:53:00;;;;;;;14.63;9.10;;;;;;;;;;1760978;80;21083;-69
2022/09/27 02:55:39;;;;;;;13.28;8.55;;;;;;;;;;1764388;80;21107;-69
2022/09/27 02:58:30;;;;;;;15.75;9.93;;;;;;;;;;1755823;80;21554;-69
2022/09/27 03:01:09;;;;;;;17.55;10.00;;;;;;;;;;1754294;80;21105;-69
2022/09/27 03:04:12;;;;;;;16.55;10.58;;;;;;;;;;1755007;80;21155;-69
2022/09/27 03:06:40;;;;;;;20.82;10.65;;;;;;;;;;1766469;80;21031;-69
2022/09/27 03:09:08;;;;;;;17.73;11.33;;;;;;;;;;1766494;80;21542;-69
2022/09/27 03:11:35;;;;;;;24.30;11.97;;;;;;;;;;1723964;81;21033;-69
2022/09/27 03:14:01;;;;;;;21.82;12.25;;;;;;;;;;1701816;83;21044;-69
2022/09/27 03:16:31;;;;;;;18.82;12.25;;;;;;;;;;1724944;82;21806;-69
2022/09/27 03:19:01;;;;;;;21.20;11.88;;;;;;;;;;1717938;83;21044;-69
2022/09/27 03:21:41;;;;;;;18.60;11.15;;;;;;;;;;1720623;83;21060;-69
2022/09/27 03:24:08;;;;;;;20.40;11.60;;;;;;;;;;1766265;81;21091;-69
2022/09/27 03:26:35;;;;;;;20.88;12.28;;;;;;;;;;1730084;81;21080;-69
2022/09/27 03:29:03;;;;;;;21.55;11.95;;;;;;;;;;1715600;82;22072;-69
2022/09/27 03:31:30;;;;;;;22.95;12.35;;;;;;;;;;1762186;80;21106;-69
2022/09/27 03:34:15;;;;;;;23.52;12.37;;;;;;;;;;1748574;80;21048;-69
2022/09/27 03:36:42;;;;;;;20.20;12.05;;;;;;;;;;1766636;81;21040;-69
2022/09/27 03:39:08;;;;;;;23.73;12.37;;;;;;;;;;1766205;81;21088;-70
2022/09/27 03:41:35;;;;;;;25.82;12.43;;;;;;;;;;1749675;80;21056;-69
2022/09/27 03:44:01;;;;;;;20.62;12.00;;;;;;;;;;1764776;80;21040;-70
2022/09/27 03:46:27;;;;;;;20.55;11.93;;;;;;;;;;1760830;80;21052;-69
2022/09/27 03:48:53;;;;;;;17.05;10.43;;;;;;;;;;1756943;80;21044;-69
2022/09/27 03:51:23;;;;;;;18.75;11.75;;;;;;;;;;1765969;80;21076;-69
2022/09/27 03:53:50;;;;;;;21.85;12.55;;;;;;;;;;1766229;80;21075;-69
2022/09/27 03:56:16;;;;;;;24.45;12.53;;;;;;;;;;1766072;80;21103;-69
2022/09/27 03:58:43;;;;;;;19.77;11.25;;;;;;;;;;1761680;80;21528;-70
2022/09/27 04:01:10;;;;;;;22.02;12.45;;;;;;;;;;1758935;80;21005;-69
2022/09/27 04:03:38;;;;;;;19.60;11.97;;;;;;;;;;1765158;80;21778;-70
2022/09/27 04:06:23;;;;;;;21.17;12.63;;;;;;;;;;1766500;81;21040;-70
2022/09/27 04:08:49;;;;;;;22.98;12.82;;;;;;;;;;1765847;80;21511;-70
2022/09/27 04:11:16;;;;;;;18.20;11.22;;;;;;;;;;1766072;80;21103;-70
2022/09/27 04:13:47;;;;;;;18.60;11.38;;;;;;;;;;1757316;80;21499;-70
2022/09/27 04:16:14;;;;;;;19.52;12.15;;;;;;;;;;1760444;80;21254;-69
2022/09/27 04:18:45;;;;;;;22.85;12.53;;;;;;;;;;1764902;80;21005;-69
2022/09/27 04:21:14;;;;;;;19.10;11.53;;;;;;;;;;1763392;80;21531;-69
2022/09/27 04:23:42;;;;;;;20.62;11.80;;;;;;;;;;1765654;80;21079;-69
2022/09/27 04:26:09;;;;;;;18.87;11.48;;;;;;;;;;1765943;80;21547;-70
2022/09/27 04:28:50;;;;;;;25.23;12.93;;;;;;;;;;1768481;80;21016;-70
2022/09/27 04:31:17;;;;;;;21.82;11.97;;;;;;;;;;1764154;80;21515;-70
2022/09/27 04:33:50;;;;;;;23.55;13.58;;;;;;;;;;1763703;80;21072;-70
2022/09/27 04:36:25;;;;;;;26.23;14.33;;;;;;;;;;1766503;80;21017;-70
2022/09/27 04:39:03;;;;;;;27.60;14.30;;;;;;;;;;1761762;80;21567;-69
2022/09/27 04:41:29;;;;;;;25.35;13.83;;;;;;;;;;1757810;80;21028;-69
2022/09/27 04:43:56;;;;;;;28.70;14.00;;;;;;;;;;1766356;80;20969;-70
2022/09/27 04:46:23;;;;;;;23.62;12.85;;;;;;;;;;1766521;80;21028;-70
2022/09/27 04:48:49;;;;;;;31.00;14.63;;;;;;;;;;1766334;80;21007;-70
2022/09/27 04:51:16;;;;;;;30.52;14.43;;;;;;;;;;1766288;80;21043;-70
2022/09/27 04:53:43;;;;;;;25.72;14.53;;;;;;;;;;1752852;80;20992;-70
2022/09/27 04:56:10;;;;;;;29.37;14.30;;;;;;;;;;1726430;81;21035;-69
2022/09/27 04:58:36;;;;;;;22.98;12.95;;;;;;;;;;1766213;80;21022;-69
2022/09/27 05:01:04;;;;;;;27.70;14.65;;;;;;;;;;1766065;80;21140;-69
2022/09/27 05:03:34;;;;;;;26.35;13.08;;;;;;;;;;1764109;80;21107;-70
2022/09/27 05:06:02;;;;;;;22.52;12.50;;;;;;;;;;1744160;80;21111;-69
2022/09/27 05:08:29;;;;;;;27.52;14.93;;;;;;;;;;1733204;81;21063;-69
2022/09/27 05:11:00;;;;;;;25.70;13.25;;;;;;;;;;1728802;82;21040;-70
2022/09/27 05:13:27;;;;;;;21.15;12.07;;;;;;;;;;1733075;81;21162;-70
2022/09/27 05:15:54;;;;;;;23.47;13.40;;;;;;;;;;1734579;82;20983;-70
2022/09/27 05:18:39;;;;;;;28.55;17.35;;;;;;;;;;1732541;81;21083;-69
2022/09/27 05:21:23;;;;;;;28.35;17.07;;;;;;;;;;1731047;81;21008;-70
2022/09/27 05:23:50;;;;;;;26.05;16.37;;;;;;;;;;1733081;81;21039;-70
2022/09/27 05:26:16;;;;;;;23.47;14.00;;;;;;;;;;1715087;82;21029;-70
2022/09/27 05:28:44;;;;;;;25.30;13.72;;;;;;;;;;1714545;83;21060;-70
2022/09/27 05:31:12;;;;;;;27.13;14.38;;;;;;;;;;1688445;83;21037;-70
2022/09/27 05:33:39;;;;;;;24.40;13.38;;;;;;;;;;1714541;82;21012;-70
2022/09/27 05:36:23;;;;;;;25.52;14.10;;;;;;;;;;1715177;83;21037;-70
2022/09/27 05:38:50;;;;;;;23.65;13.75;;;;;;;;;;1714520;82;21069;-71
2022/09/27 05:41:18;;;;;;;24.65;14.15;;;;;;;;;;1714921;82;21017;-70
2022/09/27 05:43:46;;;;;;;25.50;13.55;;;;;;;;;;1715122;83;21002;-71
2022/09/27 05:46:13;;;;;;;23.50;12.88;;;;;;;;;;1695945;83;21492;-71
2022/09/27 05:48:41;;;;;;;25.75;14.80;;;;;;;;;;1714332;83;21108;-70
2022/09/27 05:51:08;;;;;;;25.85;14.38;;;;;;;;;;1714181;83;21147;-70
2022/09/27 05:53:36;;;;;;;28.45;14.50;;;;;;;;;;1715296;83;21086;-71
2022/09/27 05:56:05;;;;;;;24.20;14.93;;;;;;;;;;1714880;84;21023;-71
2022/09/27 05:58:50;;;;;;;28.42;15.00;;;;;;;;;;1713102;83;21541;-68
2022/09/27 06:01:17;;;;;;;27.15;15.38;;;;;;;;;;1714204;84;21076;-68
2022/09/27 06:03:51;;;;;;;26.17;15.05;;;;;;;;;;1703718;82;21509;-69
2022/09/27 06:06:23;;;;;;;22.82;13.88;;;;;;;;;;1731122;81;21469;-69
2022/09/27 06:08:51;;;;;;;24.65;14.40;;;;;;;;;;1736148;82;21514;-70
2022/09/27 06:11:18;;;;;;;22.42;13.85;;;;;;;;;;1736689;81;21005;-70
2022/09/27 06:13:46;;;;;;;24.65;14.68;;;;;;;;;;1737251;81;21033;-69
2022/09/27 06:16:12;;;;;;;23.25;14.00;;;;;;;;;;1697890;82;21053;-70
2022/09/27 06:18:41;;;;;;;22.45;13.32;;;;;;;;;;1735580;81;21053;-70
2022/09/27 06:21:08;;;;;;;25.52;13.90;;;;;;;;;;1734712;81;21037;-70
2022/09/27 06:23:35;;;;;;;27.30;14.83;;;;;;;;;;1734210;81;21051;-71
2022/09/27 06:26:04;;;;;;;26.50;14.58;;;;;;;;;;1727854;81;21637;-71
2022/09/27 06:28:36;;;;;;;30.92;13.93;;;;;;;;;;1733216;81;21624;-70
2022/09/27 06:31:10;;;;;;;30.05;15.78;;;;;;;;;;1731819;83;21172;-70
2022/09/27 06:33:38;;;;;;;30.70;14.93;;;;;;;;;;1722963;82;21068;-68
2022/09/27 06:36:05;;;;;;;33.30;15.53;;;;;;;;;;1721801;82;21076;-69
2022/09/27 06:38:33;;;;;;;35.28;15.75;;;;;;;;;;1725441;81;22070;-68
2022/09/27 06:41:06;;;;;;;48.60;24.77;;;;;;;;;;1729956;81;21064;-68
2022/09/27 06:43:40;;;;;;;62.40;34.83;;;;;;;;;;1708473;83;21079;-69
2022/09/27 06:46:14;;;;;;;34.45;16.30;;;;;;;;;;1732689;82;21081;-69
2022/09/27 06:48:47;;;;;;;32.05;14.90;;;;;;;;;;1733745;81;21493;-70
2022/09/27 06:51:15;;;;;;;33.08;14.95;;;;;;;;;;1724461;81;21050;-70
2022/09/27 06:53:44;;;;;;;32.50;16.05;;;;;;;;;;1723181;81;21085;-72
2022/09/27 06:56:10;;;;;;;32.35;14.30;;;;;;;;;;1718809;83;21009;-72
2022/09/27 07:01:43;;;;;;;30.65;15.18;;;;;;;;;;1717393;83;20993;-71
2022/09/27 07:04:28;;;;;;;28.52;15.00;;;;;;;;;;1714243;82;21559;-72
2022/09/27 07:06:58;;;;;;;32.55;15.50;;;;;;;;;;1727234;81;21004;-72
2022/09/27 07:09:26;;;;;;;30.10;15.13;;;;;;;;;;1746879;82;21560;-73
2022/09/27 07:11:54;;;;;;;36.63;16.85;;;;;;;;;;1747523;81;21040;-73
2022/09/27 07:14:20;;;;;;;31.68;15.05;;;;;;;;;;1766304;80;21067;-72
2022/09/27 07:16:48;;;;;;;37.53;15.53;;;;;;;;;;1766565;81;21012;-72
2022/09/27 07:19:17;;;;;;;28.60;14.78;;;;;;;;;;1766589;80;21048;-72
2022/09/27 07:21:44;;;;;;;32.42;15.15;;;;;;;;;;1751620;80;21078;-70
2022/09/27 07:24:10;;;;;;;35.73;15.55;;;;;;;;;;1760985;81;21007;-70
2022/09/27 07:26:38;;;;;;;34.33;15.50;;;;;;;;;;1769886;81;21051;-71
2022/09/27 07:29:06;;;;;;;35.95;16.80;;;;;;;;;;1768199;81;21044;-70
2022/09/27 07:31:33;;;;;;;30.72;15.35;;;;;;;;;;1771025;80;21004;-71
2022/09/27 07:33:59;;;;;;;29.23;14.98;;;;;;;;;;1771768;80;21041;-71
2022/09/27 07:36:25;;;;;;;32.78;15.80;;;;;;;;;;1764055;80;21539;-68
2022/09/27 07:38:52;;;;;;;26.40;13.90;;;;;;;;;;1764934;81;21032;-68
2022/09/27 07:41:19;;;;;;;34.35;15.03;;;;;;;;;;1763352;80;20993;-72
2022/09/27 07:43:46;;;;;;;26.00;13.85;;;;;;;;;;1769938;81;21044;-73
2022/09/27 07:46:13;;;;;;;29.98;15.03;;;;;;;;;;1756477;80;21060;-71
2022/09/27 07:48:45;;;;;;;26.82;14.00;;;;;;;;;;1761452;80;21097;-70
2022/09/27 07:51:23;;;;;;;27.05;13.72;;;;;;;;;;1763160;80;21527;-70
2022/09/27 07:53:50;;;;;;;20.85;11.83;;;;;;;;;;1762268;80;21052;-71
2022/09/27 07:56:32;;;;;;;25.90;14.63;;;;;;;;;;1762058;80;21041;-69
2022/09/27 07:58:58;;;;;;;28.73;17.62;;;;;;;;;;1764969;80;20976;-69
2022/09/27 08:01:24;;;;;;;23.15;13.28;;;;;;;;;;1766033;80;21015;-70
2022/09/27 08:03:51;;;;;;;23.32;13.20;;;;;;;;;;1757697;81;21028;-71
2022/09/27 08:06:18;;;;;;;23.38;12.45;;;;;;;;;;1765791;80;21007;-71
2022/09/27 08:08:46;;;;;;;20.77;11.70;;;;;;;;;;1760370;81;21048;-70
2022/09/27 08:11:17;;;;;;;18.80;11.48;;;;;;;;;;1759275;80;21236;-72
2022/09/27 08:13:48;;;;;;;17.85;11.38;;;;;;;;;;1759164;80;20983;-72
2022/09/27 08:16:16;;;;;;;15.58;10.65;;;;;;;;;;1760674;80;21080;-72
2022/09/27 08:19:00;;;;;;;17.48;10.98;;;;;;;;;;1725181;83;21088;-71
2022/09/27 08:21:40;;;;;;;17.62;10.18;;;;;;;;;;1663318;82;21575;-72
2022/09/27 08:24:11;;;;;;;19.10;11.15;;;;;;;;;;1691073;85;21020;-72
2022/09/27 08:26:45;;;;;;;19.70;11.15;;;;;;;;;;1695880;83;21092;-72
2022/09/27 08:29:14;;;;;;;21.17;10.38;;;;;;;;;;1718426;82;21093;-73
2022/09/27 08:31:43;;;;;;;17.05;10.20;;;;;;;;;;1720066;82;21081;-71
2022/09/27 08:34:09;;;;;;;20.60;11.45;;;;;;;;;;1721348;83;21548;-69
2022/09/27 08:36:36;;;;;;;15.88;9.68;;;;;;;;;;1722244;82;21100;-70
2022/09/27 08:39:03;;;;;;;15.32;9.68;;;;;;;;;;1722091;82;21033;-69
2022/09/27 08:41:39;;;;;;;12.95;9.00;;;;;;;;;;1697335;83;21108;-69
2022/09/27 08:44:19;;;;;;;14.25;9.75;;;;;;;;;;1699727;83;21536;-70
2022/09/27 08:46:59;;;;;;;12.68;9.30;;;;;;;;;;1682120;83;21079;-71
2022/09/27 08:49:33;;;;;;;13.30;8.53;;;;;;;;;;1712743;83;21668;-71
2022/09/27 08:51:59;;;;;;;14.90;10.38;;;;;;;;;;1686127;84;21048;-70
2022/09/27 08:54:28;;;;;;;12.98;9.48;;;;;;;;;;1712508;83;21109;-71
2022/09/27 08:57:02;;;;;;;12.25;9.00;;;;;;;;;;1712920;82;21568;-72
2022/09/27 08:59:29;;;;;;;12.50;8.83;;;;;;;;;;1729894;82;21691;-71
2022/09/27 09:01:56;;;;;;;13.98;9.40;;;;;;;;;;1727237;82;21061;-72
2022/09/27 09:04:28;;;;;;;12.28;9.25;;;;;;;;;;1731253;82;21009;-72
2022/09/27 09:07:02;;;;;;;16.65;9.73;;;;;;;;;;1728853;82;21026;-72
2022/09/27 09:09:41;;;;;;;12.28;9.25;;;;;;;;;;1739243;82;21101;-72
2022/09/27 09:15:18;;;;;;;12.98;9.58;;;;;;;;;;1687396;84;21030;-71
2022/09/27 09:17:54;;;;;;;14.25;8.58;;;;;;;;;;1694254;85;21574;-72
2022/09/27 09:20:42;;;;;;;15.20;9.90;;;;;;;;;;1722594;82;21002;-71
2022/09/27 09:23:13;;;;;;;15.43;10.18;;;;;;;;;;1719726;83;21682;-74
2022/09/27 09:25:47;;;;;;;15.45;10.50;;;;;;;;;;1750743;80;21044;-71
2022/09/27 09:28:32;;;;;;;13.93;9.53;;;;;;;;;;1752425;80;20998;-69
2022/09/27 09:31:06;;;;;;;17.55;10.60;;;;;;;;;;1744479;80;21012;-72
2022/09/27 09:33:34;;;;;;;14.23;9.90;;;;;;;;;;1741173;82;21518;-71
2022/09/27 09:36:02;;;;;;;14.30;10.48;;;;;;;;;;1749051;80;20969;-72
2022/09/27 09:38:39;;;;;;;13.98;10.58;;;;;;;;;;1746108;80;21044;-73
2022/09/27 09:41:18;;;;;;;14.83;10.10;;;;;;;;;;1742226;80;21088;-72
2022/09/27 09:43:47;;;;;;;16.00;9.85;;;;;;;;;;1749229;80;21029;-71
2022/09/27 09:46:16;;;;;;;12.47;8.88;;;;;;;;;;1766384;80;21030;-72
2022/09/27 09:48:50;;;;;;;12.15;8.93;;;;;;;;;;1765947;80;21472;-72
2022/09/27 09:51:20;;;;;;;14.73;8.45;;;;;;;;;;1751653;80;21036;-73
2022/09/27 09:53:59;;;;;;;14.28;9.13;;;;;;;;;;1729641;82;21099;-73
2022/09/27 09:56:29;;;;;;;11.33;8.85;;;;;;;;;;1759934;80;21023;-72
2022/09/27 09:59:01;;;;;;;11.15;8.20;;;;;;;;;;1762199;80;21484;-72
2022/09/27 10:01:42;;;;;;;12.37;8.28;;;;;;;;;;1760593;80;21044;-72
2022/09/27 10:04:23;;;;;;;12.10;8.43;;;;;;;;;;1759665;80;21024;-73
2022/09/27 10:06:50;;;;;;;10.35;8.15;;;;;;;;;;1763256;80;21040;-74
2022/09/27 10:09:18;;;;;;;12.33;9.10;;;;;;;;;;1764124;80;21123;-73
2022/09/27 10:11:47;;;;;;;10.85;8.75;;;;;;;;;;1763666;81;21087;-71
2022/09/27 10:14:18;;;;;;;12.05;9.15;;;;;;;;;;1764087;80;21040;-71
2022/09/27 10:16:47;;;;;;;31.70;25.37;;;;;;;;;;1761937;80;21060;-70
2022/09/27 10:19:15;;;;;;;13.88;9.20;;;;;;;;;;1760156;80;21032;-70
2022/09/27 10:21:44;;;;;;;11.48;9.00;;;;;;;;;;1753883;80;20968;-75
2022/09/27 10:24:12;;;;;;;10.35;8.03;;;;;;;;;;1711310;83;21075;-74
2022/09/27 10:26:54;;;;;;;12.98;8.90;;;;;;;;;;1753166;80;21094;-74
2022/09/27 10:29:22;;;;;;;11.10;8.30;;;;;;;;;;1723427;81;21038;-74
2022/09/27 10:31:49;;;;;;;10.82;8.10;;;;;;;;;;1706809;83;21036;-72
2022/09/27 10:34:18;;;;;;;11.00;7.83;;;;;;;;;;1737111;81;21059;-71
2022/09/27 10:36:46;;;;;;;10.88;8.25;;;;;;;;;;1734308;80;21044;-72
2022/09/27 10:39:20;;;;;;;11.48;8.93;;;;;;;;;;1725980;80;21084;-71
2022/09/27 10:41:46;;;;;;;14.30;8.98;;;;;;;;;;1734136;80;21048;-71
2022/09/27 10:44:30;;;;;;;12.20;9.58;;;;;;;;;;1751706;80;21091;-69
2022/09/27 10:47:21;;;;;;;13.10;9.70;;;;;;;;;;1767534;80;21048;-71
2022/09/27 10:50:02;;;;;;;14.60;9.90;;;;;;;;;;1763143;80;20996;-69
2022/09/27 10:52:41;;;;;;;13.03;9.38;;;;;;;;;;1693684;83;21089;-69
2022/09/27 10:55:10;;;;;;;12.50;9.13;;;;;;;;;;1756397;80;21035;-70
2022/09/27 10:57:37;;;;;;;11.88;8.65;;;;;;;;;;1764556;80;21550;-69
2022/09/27 11:00:05;;;;;;;11.73;9.13;;;;;;;;;;1765787;80;21076;-71
2022/09/27 11:02:33;;;;;;;12.00;9.30;;;;;;;;;;1765506;80;21100;-70
2022/09/27 11:05:07;;;;;;;12.70;8.25;;;;;;;;;;1724463;81;21111;-74
2022/09/27 11:07:35;;;;;;;11.48;8.70;;;;;;;;;;1765403;81;21071;-76
2022/09/27 11:10:47;;;;;;;10.85;8.45;;;;;;;;;;1810345;79;23197;-68
2022/09/27 11:13:15;;;;;;;13.78;9.08;;;;;;;;;;1723703;81;21072;-68
2022/09/27 11:15:44;;;;;;;11.83;9.05;;;;;;;;;;1739371;81;21037;-69
2022/09/27 11:18:19;;;;;;;13.75;9.55;;;;;;;;;;1714450;82;21116;-70
2022/09/27 11:20:49;;;;;;;11.50;8.83;;;;;;;;;;1715478;82;21044;-69
2022/09/27 11:23:28;;;;;;;9.60;8.10;;;;;;;;;;1715620;82;21058;-70
2022/09/27 11:25:57;;;;;;;12.80;9.40;;;;;;;;;;1751936;80;20992;-70
2022/09/27 11:28:43;;;;;;;15.28;10.85;;;;;;;;;;1714705;82;21040;-69
2022/09/27 11:31:12;;;;;;;13.53;10.18;;;;;;;;;;1718565;81;21039;-69
2022/09/27 11:34:04;;;;;;;14.58;9.55;;;;;;;;;;1745629;81;21583;-69
2022/09/27 11:36:38;;;;;;;12.10;8.88;;;;;;;;;;1709376;81;21075;-68
2022/09/27 11:39:18;;;;;;;12.90;9.48;;;;;;;;;;1715298;83;22628;-68
2022/09/27 11:42:05;;;;;;;15.80;10.65;;;;;;;;;;1713068;83;21107;-67
2022/09/27 11:44:38;;;;;;;16.62;10.38;;;;;;;;;;1721298;83;21518;-68
2022/09/27 11:47:19;;;;;;;15.35;10.63;;;;;;;;;;1720840;83;21037;-68
2022/09/27 11:49:59;;;;;;;14.95;10.68;;;;;;;;;;1720843;83;21080;-68
2022/09/27 11:52:30;;;;;;;14.50;10.45;;;;;;;;;;1719626;83;21563;-66
2022/09/27 11:54:58;;;;;;;14.23;10.75;;;;;;;;;;1730695;81;21536;-66
2022/09/27 11:57:25;;;;;;;35.20;25.12;;;;;;;;;;1744825;81;21044;-66
2022/09/27 11:59:53;;;;;;;15.58;11.48;;;;;;;;;;1727119;83;21108;-67
2022/09/27 12:02:34;;;;;;;14.75;10.75;;;;;;;;;;1731603;82;21009;-67
2022/09/27 12:05:02;;;;;;;15.10;11.12;;;;;;;;;;1708518;83;21052;-67
2022/09/27 12:07:37;;;;;;;16.15;11.05;;;;;;;;;;1724251;83;21089;-68
2022/09/27 12:10:05;;;;;;;16.25;11.18;;;;;;;;;;1711719;83;21038;-66
2022/09/27 12:12:34;;;;;;;18.45;12.30;;;;;;;;;;1758278;80;22003;-67
2022/09/27 12:15:02;;;;;;;16.20;11.53;;;;;;;;;;1751687;80;21066;-66
2022/09/27 12:17:30;;;;;;;15.03;10.70;;;;;;;;;;1734247;80;21089;-67
2022/09/27 12:20:01;;;;;;;17.95;11.60;;;;;;;;;;1687088;85;21512;-67
2022/09/27 12:22:49;;;;;;;15.55;10.98;;;;;;;;;;1685822;83;21129;-67
2022/09/27 12:25:16;;;;;;;14.98;10.90;;;;;;;;;;1675214;85;21096;-67
2022/09/27 12:27:46;;;;;;;16.60;11.08;;;;;;;;;;1674580;83;21090;-68
2022/09/27 12:30:15;;;;;;;17.75;12.45;;;;;;;;;;1689379;83;21095;-68
2022/09/27 12:32:43;;;;;;;26.12;15.83;;;;;;;;;;1678590;83;21021;-67
2022/09/27 12:35:18;;;;;;;30.70;18.20;;;;;;;;;;1670595;83;21574;-66
2022/09/27 12:37:47;;;;;;;33.00;19.17;;;;;;;;;;1681990;83;21599;-66
2022/09/27 12:40:18;;;;;;;33.25;19.52;;;;;;;;;;1691818;83;21526;-67
2022/09/27 12:42:49;;;;;;;40.08;20.30;;;;;;;;;;1674970;83;21093;-67
2022/09/27 12:45:19;;;;;;;39.17;19.87;;;;;;;;;;1659796;83;21068;-67
2022/09/27 12:47:50;;;;;;;37.83;20.00;;;;;;;;;;1715873;82;22071;-67
2022/09/27 12:50:36;;;;;;;41.90;20.75;;;;;;;;;;1705544;83;21039;-69
2022/09/27 12:53:21;;;;;;;52.53;24.77;;;;;;;;;;1725796;82;21557;-70
2022/09/27 12:56:05;;;;;;;50.52;23.38;;;;;;;;;;1723491;80;21076;-69
2022/09/27 12:58:33;;;;;;;54.30;25.75;;;;;;;;;;1761282;80;21033;-66
2022/09/27 13:01:01;;;;;;;47.33;23.10;;;;;;;;;;1750610;80;21092;-67
2022/09/27 13:03:30;;;;;;;46.90;23.35;;;;;;;;;;1749929;80;21033;-67
2022/09/27 13:06:20;;;;;;;56.75;28.55;;;;;;;;;;1750189;81;21048;-67
2022/09/27 13:08:48;;;;;;;56.95;29.30;;;;;;;;;;1700091;83;21070;-68
2022/09/27 13:11:33;;;;;;;51.13;26.45;;;;;;;;;;1760224;80;21009;-69
2022/09/27 13:14:00;;;;;;;52.43;27.13;;;;;;;;;;1764103;80;21055;-69
2022/09/27 13:16:27;;;;;;;48.42;24.43;;;;;;;;;;1775781;80;20965;-70
2022/09/27 13:19:00;;;;;;;58.20;25.88;;;;;;;;;;1771746;80;21079;-68
2022/09/27 13:21:42;;;;;;;48.35;24.10;;;;;;;;;;1773259;80;21126;-68
2022/09/27 13:24:29;;;;;;;48.98;25.37;;;;;;;;;;1774629;80;21013;-68
2022/09/27 13:26:57;;;;;;;49.10;24.87;;;;;;;;;;1761783;80;21052;-67
2022/09/27 13:29:25;;;;;;;47.62;24.63;;;;;;;;;;1777148;80;21045;-68
2022/09/27 13:31:56;;;;;;;54.23;25.05;;;;;;;;;;1770662;80;21052;-68
2022/09/27 13:34:40;;;;;;;52.15;25.05;;;;;;;;;;1761293;80;21481;-66
2022/09/27 13:37:26;;;;;;;47.90;22.95;;;;;;;;;;1777542;80;21012;-66
2022/09/27 13:40:11;;;;;;;47.67;24.37;;;;;;;;;;1789651;80;21032;-67
2022/09/27 13:42:39;;;;;;;49.10;24.20;;;;;;;;;;1758315;80;21001;-66
2022/09/27 13:45:12;;;;;;;47.65;24.40;;;;;;;;;;1722944;82;21021;-67
2022/09/27 13:47:40;;;;;;;47.25;24.23;;;;;;;;;;1716877;82;21576;-67
2022/09/27 13:50:16;;;;;;;50.20;24.02;;;;;;;;;;1670509;85;21073;-69
2022/09/27 13:52:45;;;;;;;53.75;24.67;;;;;;;;;;1723809;82;21026;-66
2022/09/27 13:55:35;;;;;;;51.45;24.77;;;;;;;;;;1688195;83;21018;-69
2022/09/27 13:58:02;;;;;;;51.28;24.43;;;;;;;;;;1736156;82;21656;-68
2022/09/27 14:00:31;;;;;;;47.85;23.75;;;;;;;;;;1694840;83;22217;-69
2022/09/27 14:03:02;;;;;;;37.88;19.95;;;;;;;;;;1705020;82;21099;-68
2022/09/27 14:05:31;;;;;;;52.15;26.57;;;;;;;;;;1695285;83;21081;-70
2022/09/27 14:07:58;;;;;;;40.85;23.25;;;;;;;;;;1698405;83;21065;-69
2022/09/27 14:10:26;;;;;;;38.65;20.75;;;;;;;;;;1682162;84;21049;-67
2022/09/27 14:12:52;;;;;;;47.95;22.67;;;;;;;;;;1659805;86;21089;-67
2022/09/27 14:15:23;;;;;;;45.20;23.75;;;;;;;;;;1710180;84;21086;-67
2022/09/27 14:17:51;;;;;;;43.00;22.58;;;;;;;;;;1745358;82;21584;-66
2022/09/27 14:20:39;;;;;;;43.92;21.52;;;;;;;;;;1734727;81;21057;-66
2022/09/27 14:23:08;;;;;;;39.27;23.00;;;;;;;;;;1739759;82;21070;-66
2022/09/27 14:25:40;;;;;;;42.58;22.45;;;;;;;;;;1727067;82;21104;-67
2022/09/27 14:28:09;;;;;;;40.65;22.60;;;;;;;;;;1720588;82;21041;-68
2022/09/27 14:30:42;;;;;;;42.35;20.68;;;;;;;;;;1723945;82;21524;-69
2022/09/27 14:33:26;;;;;;;39.67;19.70;;;;;;;;;;1712703;83;21524;-67
2022/09/27 14:38:39;;;;;;;39.23;20.88;;;;;;;;;;1715803;83;21081;-66
2022/09/27 14:41:07;;;;;;;43.80;21.62;;;;;;;;;;1730088;82;21033;-66
2022/09/27 14:43:34;;;;;;;35.25;20.02;;;;;;;;;;1728258;82;21512;-66
2022/09/27 14:46:01;;;;;;;41.00;20.50;;;;;;;;;;1734363;82;21049;-67
2022/09/27 14:48:29;;;;;;;37.25;20.48;;;;;;;;;;1723671;82;21022;-66
2022/09/27 14:50:59;;;;;;;35.48;19.77;;;;;;;;;;1730939;82;21021;-66
2022/09/27 14:53:27;;;;;;;36.90;20.15;;;;;;;;;;1708437;82;21042;-67
2022/09/27 14:55:54;;;;;;;38.13;20.40;;;;;;;;;;1728502;83;21552;-67
2022/09/27 14:58:25;;;;;;;42.13;21.25;;;;;;;;;;1722046;82;21009;-66
2022/09/27 15:00:49;;;;;;;36.03;20.37;;;;;;;;;;1726049;81;21893;-65
2022/09/27 15:03:18;;;;;;;36.20;19.25;;;;;;;;;;1731627;82;21656;-67